sensor_id;sensor_type;location;lat;lon;timestamp;P1;durP1;ratioP1;P2;durP2;ratioP2
67065;SDS011;53978;43.846;25.952;2023-06-24T00:01:27;8.52;;;5.82;;
67065;SDS011;53978;43.846;25.952;2023-06-24T00:04:10;7.32;;;6.07;;
67065;SDS011;53978;43.846;25.952;2023-06-24T00:06:35;6.57;;;5.90;;
67065;SDS011;53978;43.846;25.952;2023-06-24T00:09:02;9.13;;;5.70;;
67065;SDS011;53978;43.846;25.952;2023-06-24T00:11:28;7.30;;;5.57;;
67065;SDS011;53978;43.846;25.952;2023-06-24T00:13:54;9.45;;;5.47;;
67065;SDS011;53978;43.846;25.952;2023-06-24T00:16:20;5.50;;;4.93;;
67065;SDS011;53978;43.846;25.952;2023-06-24T00:18:51;8.23;;;4.95;;
67065;SDS011;53978;43.846;25.952;2023-06-24T00:21:18;5.35;;;4.57;;
67065;SDS011;53978;43.846;25.952;2023-06-24T00:23:45;5.07;;;4.25;;
67065;SDS011;53978;43.846;25.952;2023-06-24T00:26:14;7.75;;;4.55;;
67065;SDS011;53978;43.846;25.952;2023-06-24T00:28:39;5.05;;;4.50;;
67065;SDS011;53978;43.846;25.952;2023-06-24T00:31:05;4.70;;;4.30;;
67065;SDS011;53978;43.846;25.952;2023-06-24T00:33:30;4.10;;;3.70;;
67065;SDS011;53978;43.846;25.952;2023-06-24T00:36:01;4.13;;;3.72;;
67065;SDS011;53978;43.846;25.952;2023-06-24T00:38:26;8.43;;;3.63;;
67065;SDS011;53978;43.846;25.952;2023-06-24T00:40:52;4.20;;;3.53;;
67065;SDS011;53978;43.846;25.952;2023-06-24T00:43:17;4.70;;;3.67;;
67065;SDS011;53978;43.846;25.952;2023-06-24T00:45:42;3.67;;;3.25;;
67065;SDS011;53978;43.846;25.952;2023-06-24T00:48:08;4.20;;;3.70;;
67065;SDS011;53978;43.846;25.952;2023-06-24T00:50:36;4.93;;;3.80;;
67065;SDS011;53978;43.846;25.952;2023-06-24T01:03:11;4.72;;;3.22;;
67065;SDS011;53978;43.846;25.952;2023-06-24T01:05:38;3.78;;;3.47;;
67065;SDS011;53978;43.846;25.952;2023-06-24T01:08:05;6.30;;;3.40;;
67065;SDS011;53978;43.846;25.952;2023-06-24T01:10:31;9.40;;;3.60;;
67065;SDS011;53978;43.846;25.952;2023-06-24T01:12:57;4.30;;;3.72;;
67065;SDS011;53978;43.846;25.952;2023-06-24T01:15:22;6.50;;;3.90;;
67065;SDS011;53978;43.846;25.952;2023-06-24T01:37:12;4.22;;;3.50;;
67065;SDS011;53978;43.846;25.952;2023-06-24T01:39:50;5.47;;;3.60;;
67065;SDS011;53978;43.846;25.952;2023-06-24T01:42:21;4.47;;;3.40;;
67065;SDS011;53978;43.846;25.952;2023-06-24T01:44:47;4.97;;;3.67;;
67065;SDS011;53978;43.846;25.952;2023-06-24T01:47:14;6.63;;;3.92;;
67065;SDS011;53978;43.846;25.952;2023-06-24T01:49:42;3.70;;;3.40;;
67065;SDS011;53978;43.846;25.952;2023-06-24T01:52:09;4.78;;;3.50;;
67065;SDS011;53978;43.846;25.952;2023-06-24T01:54:35;3.97;;;3.60;;
67065;SDS011;53978;43.846;25.952;2023-06-24T01:57:01;5.82;;;3.47;;
67065;SDS011;53978;43.846;25.952;2023-06-24T01:59:29;5.32;;;3.60;;
67065;SDS011;53978;43.846;25.952;2023-06-24T02:01:55;3.97;;;3.55;;
67065;SDS011;53978;43.846;25.952;2023-06-24T02:04:23;4.43;;;3.50;;
67065;SDS011;53978;43.846;25.952;2023-06-24T02:06:51;5.38;;;3.33;;
67065;SDS011;53978;43.846;25.952;2023-06-24T02:09:19;14.70;;;3.22;;
67065;SDS011;53978;43.846;25.952;2023-06-24T02:11:45;4.63;;;3.72;;
67065;SDS011;53978;43.846;25.952;2023-06-24T02:14:11;3.60;;;3.30;;
67065;SDS011;53978;43.846;25.952;2023-06-24T02:16:38;3.83;;;3.45;;
67065;SDS011;53978;43.846;25.952;2023-06-24T02:19:05;7.07;;;3.38;;
67065;SDS011;53978;43.846;25.952;2023-06-24T02:21:33;5.22;;;3.70;;
67065;SDS011;53978;43.846;25.952;2023-06-24T02:24:00;3.80;;;3.40;;
67065;SDS011;53978;43.846;25.952;2023-06-24T02:26:26;5.97;;;3.33;;
67065;SDS011;53978;43.846;25.952;2023-06-24T02:28:54;3.65;;;3.22;;
67065;SDS011;53978;43.846;25.952;2023-06-24T02:31:20;3.80;;;3.38;;
67065;SDS011;53978;43.846;25.952;2023-06-24T02:33:46;6.07;;;3.58;;
67065;SDS011;53978;43.846;25.952;2023-06-24T02:36:11;5.53;;;3.63;;
67065;SDS011;53978;43.846;25.952;2023-06-24T02:38:37;4.28;;;3.55;;
67065;SDS011;53978;43.846;25.952;2023-06-24T02:41:02;4.47;;;3.63;;
67065;SDS011;53978;43.846;25.952;2023-06-24T02:43:29;5.50;;;4.72;;
67065;SDS011;53978;43.846;25.952;2023-06-24T02:45:58;6.82;;;4.68;;
67065;SDS011;53978;43.846;25.952;2023-06-24T02:48:25;4.03;;;3.55;;
67065;SDS011;53978;43.846;25.952;2023-06-24T02:50:53;8.20;;;3.30;;
67065;SDS011;53978;43.846;25.952;2023-06-24T02:53:19;4.32;;;3.50;;
67065;SDS011;53978;43.846;25.952;2023-06-24T02:55:45;5.70;;;3.30;;
67065;SDS011;53978;43.846;25.952;2023-06-24T02:58:10;4.03;;;3.63;;
67065;SDS011;53978;43.846;25.952;2023-06-24T03:00:36;4.25;;;3.65;;
67065;SDS011;53978;43.846;25.952;2023-06-24T03:03:03;3.90;;;3.60;;
67065;SDS011;53978;43.846;25.952;2023-06-24T03:05:30;5.60;;;3.60;;
67065;SDS011;53978;43.846;25.952;2023-06-24T03:07:56;4.05;;;3.58;;
67065;SDS011;53978;43.846;25.952;2023-06-24T03:10:23;3.75;;;3.40;;
67065;SDS011;53978;43.846;25.952;2023-06-24T03:12:49;4.88;;;3.55;;
67065;SDS011;53978;43.846;25.952;2023-06-24T03:15:14;6.47;;;3.95;;
67065;SDS011;53978;43.846;25.952;2023-06-24T03:17:39;4.55;;;3.97;;
67065;SDS011;53978;43.846;25.952;2023-06-24T03:20:05;5.72;;;3.95;;
67065;SDS011;53978;43.846;25.952;2023-06-24T03:22:32;5.90;;;4.13;;
67065;SDS011;53978;43.846;25.952;2023-06-24T03:24:59;8.45;;;4.07;;
67065;SDS011;53978;43.846;25.952;2023-06-24T03:27:25;4.60;;;3.90;;
67065;SDS011;53978;43.846;25.952;2023-06-24T03:29:50;4.95;;;3.90;;
67065;SDS011;53978;43.846;25.952;2023-06-24T03:32:15;11.20;;;3.88;;
67065;SDS011;53978;43.846;25.952;2023-06-24T03:34:41;12.85;;;4.05;;
67065;SDS011;53978;43.846;25.952;2023-06-24T03:37:06;8.02;;;4.07;;
67065;SDS011;53978;43.846;25.952;2023-06-24T03:39:32;5.13;;;4.07;;
67065;SDS011;53978;43.846;25.952;2023-06-24T03:41:57;6.80;;;3.83;;
67065;SDS011;53978;43.846;25.952;2023-06-24T03:44:23;6.65;;;4.28;;
67065;SDS011;53978;43.846;25.952;2023-06-24T03:46:48;4.55;;;3.88;;
67065;SDS011;53978;43.846;25.952;2023-06-24T03:49:16;4.75;;;4.10;;
67065;SDS011;53978;43.846;25.952;2023-06-24T03:51:44;5.68;;;3.78;;
67065;SDS011;53978;43.846;25.952;2023-06-24T03:54:09;6.65;;;3.63;;
67065;SDS011;53978;43.846;25.952;2023-06-24T03:56:35;8.13;;;3.97;;
67065;SDS011;53978;43.846;25.952;2023-06-24T03:59:08;4.38;;;3.42;;
67065;SDS011;53978;43.846;25.952;2023-06-24T04:01:37;8.00;;;3.92;;
67065;SDS011;53978;43.846;25.952;2023-06-24T04:04:03;5.05;;;3.88;;
67065;SDS011;53978;43.846;25.952;2023-06-24T04:06:29;6.47;;;3.92;;
67065;SDS011;53978;43.846;25.952;2023-06-24T04:08:54;7.10;;;4.00;;
67065;SDS011;53978;43.846;25.952;2023-06-24T04:11:20;4.32;;;3.88;;
67065;SDS011;53978;43.846;25.952;2023-06-24T04:13:45;7.65;;;4.00;;
67065;SDS011;53978;43.846;25.952;2023-06-24T04:16:13;4.43;;;4.03;;
67065;SDS011;53978;43.846;25.952;2023-06-24T04:18:38;5.22;;;4.20;;
67065;SDS011;53978;43.846;25.952;2023-06-24T04:21:04;8.82;;;4.47;;
67065;SDS011;53978;43.846;25.952;2023-06-24T04:23:31;6.32;;;4.20;;
67065;SDS011;53978;43.846;25.952;2023-06-24T04:25:57;4.97;;;4.10;;
67065;SDS011;53978;43.846;25.952;2023-06-24T04:28:22;4.57;;;4.10;;
67065;SDS011;53978;43.846;25.952;2023-06-24T04:30:48;5.65;;;4.45;;
67065;SDS011;53978;43.846;25.952;2023-06-24T04:33:13;6.82;;;4.53;;
67065;SDS011;53978;43.846;25.952;2023-06-24T04:35:38;5.20;;;4.35;;
67065;SDS011;53978;43.846;25.952;2023-06-24T04:38:04;5.22;;;4.53;;
67065;SDS011;53978;43.846;25.952;2023-06-24T04:40:29;8.02;;;4.50;;
67065;SDS011;53978;43.846;25.952;2023-06-24T04:42:55;6.85;;;4.32;;
67065;SDS011;53978;43.846;25.952;2023-06-24T04:45:21;9.75;;;4.82;;
67065;SDS011;53978;43.846;25.952;2023-06-24T04:47:46;11.68;;;5.05;;
67065;SDS011;53978;43.846;25.952;2023-06-24T04:50:12;10.13;;;5.13;;
67065;SDS011;53978;43.846;25.952;2023-06-24T04:52:38;10.00;;;5.40;;
67065;SDS011;53978;43.846;25.952;2023-06-24T04:55:04;11.60;;;5.50;;
67065;SDS011;53978;43.846;25.952;2023-06-24T04:57:40;14.02;;;4.97;;
67065;SDS011;53978;43.846;25.952;2023-06-24T05:00:07;9.13;;;5.30;;
67065;SDS011;53978;43.846;25.952;2023-06-24T05:02:33;8.30;;;5.22;;
67065;SDS011;53978;43.846;25.952;2023-06-24T05:04:59;7.63;;;5.10;;
67065;SDS011;53978;43.846;25.952;2023-06-24T05:07:24;9.00;;;5.13;;
67065;SDS011;53978;43.846;25.952;2023-06-24T05:09:49;14.70;;;5.15;;
67065;SDS011;53978;43.846;25.952;2023-06-24T05:12:16;11.90;;;5.05;;
67065;SDS011;53978;43.846;25.952;2023-06-24T05:14:41;5.18;;;4.65;;
67065;SDS011;53978;43.846;25.952;2023-06-24T05:17:07;6.47;;;5.00;;
67065;SDS011;53978;43.846;25.952;2023-06-24T05:19:32;6.10;;;4.80;;
67065;SDS011;53978;43.846;25.952;2023-06-24T05:21:58;7.15;;;4.65;;
67065;SDS011;53978;43.846;25.952;2023-06-24T05:24:24;5.88;;;4.45;;
67065;SDS011;53978;43.846;25.952;2023-06-24T05:26:52;4.75;;;4.22;;
67065;SDS011;53978;43.846;25.952;2023-06-24T05:29:17;4.88;;;4.30;;
67065;SDS011;53978;43.846;25.952;2023-06-24T05:31:45;6.18;;;4.20;;
67065;SDS011;53978;43.846;25.952;2023-06-24T05:34:11;5.07;;;4.35;;
67065;SDS011;53978;43.846;25.952;2023-06-24T05:36:39;6.65;;;4.80;;
67065;SDS011;53978;43.846;25.952;2023-06-24T05:39:04;7.85;;;4.70;;
67065;SDS011;53978;43.846;25.952;2023-06-24T05:41:32;6.10;;;4.20;;
67065;SDS011;53978;43.846;25.952;2023-06-24T05:44:04;6.25;;;4.40;;
67065;SDS011;53978;43.846;25.952;2023-06-24T05:46:33;6.97;;;4.30;;
67065;SDS011;53978;43.846;25.952;2023-06-24T05:48:59;7.72;;;4.40;;
67065;SDS011;53978;43.846;25.952;2023-06-24T05:51:27;6.07;;;4.47;;
67065;SDS011;53978;43.846;25.952;2023-06-24T05:53:53;7.30;;;4.35;;
67065;SDS011;53978;43.846;25.952;2023-06-24T05:56:19;7.38;;;4.13;;
67065;SDS011;53978;43.846;25.952;2023-06-24T05:58:48;4.72;;;4.32;;
67065;SDS011;53978;43.846;25.952;2023-06-24T06:01:13;12.63;;;4.55;;
67065;SDS011;53978;43.846;25.952;2023-06-24T06:03:41;6.00;;;4.45;;
67065;SDS011;53978;43.846;25.952;2023-06-24T06:06:07;5.10;;;4.60;;
67065;SDS011;53978;43.846;25.952;2023-06-24T06:08:32;7.93;;;4.60;;
67065;SDS011;53978;43.846;25.952;2023-06-24T06:10:59;6.38;;;3.90;;
67065;SDS011;53978;43.846;25.952;2023-06-24T06:13:32;5.20;;;4.07;;
67065;SDS011;53978;43.846;25.952;2023-06-24T06:15:58;7.18;;;4.30;;
67065;SDS011;53978;43.846;25.952;2023-06-24T06:18:23;5.05;;;4.45;;
67065;SDS011;53978;43.846;25.952;2023-06-24T06:20:49;5.57;;;4.35;;
67065;SDS011;53978;43.846;25.952;2023-06-24T06:23:15;7.45;;;4.53;;
67065;SDS011;53978;43.846;25.952;2023-06-24T06:25:41;9.15;;;4.05;;
67065;SDS011;53978;43.846;25.952;2023-06-24T06:28:06;5.90;;;4.18;;
67065;SDS011;53978;43.846;25.952;2023-06-24T06:30:31;8.32;;;4.22;;
67065;SDS011;53978;43.846;25.952;2023-06-24T06:32:57;4.60;;;4.18;;
67065;SDS011;53978;43.846;25.952;2023-06-24T06:35:22;4.82;;;4.13;;
67065;SDS011;53978;43.846;25.952;2023-06-24T06:37:48;4.97;;;4.47;;
67065;SDS011;53978;43.846;25.952;2023-06-24T06:40:18;4.60;;;4.00;;
67065;SDS011;53978;43.846;25.952;2023-06-24T06:42:44;4.70;;;4.20;;
67065;SDS011;53978;43.846;25.952;2023-06-24T06:45:09;4.55;;;4.00;;
67065;SDS011;53978;43.846;25.952;2023-06-24T06:47:35;7.63;;;4.22;;
67065;SDS011;53978;43.846;25.952;2023-06-24T06:50:00;3.78;;;3.47;;
67065;SDS011;53978;43.846;25.952;2023-06-24T06:52:28;5.53;;;3.75;;
67065;SDS011;53978;43.846;25.952;2023-06-24T06:54:57;6.32;;;4.35;;
67065;SDS011;53978;43.846;25.952;2023-06-24T06:57:23;4.80;;;4.20;;
67065;SDS011;53978;43.846;25.952;2023-06-24T06:59:48;4.80;;;4.30;;
67065;SDS011;53978;43.846;25.952;2023-06-24T07:02:17;4.95;;;4.28;;
67065;SDS011;53978;43.846;25.952;2023-06-24T07:04:42;4.40;;;4.00;;
67065;SDS011;53978;43.846;25.952;2023-06-24T07:07:08;3.95;;;3.55;;
67065;SDS011;53978;43.846;25.952;2023-06-24T07:09:34;5.68;;;4.22;;
67065;SDS011;53978;43.846;25.952;2023-06-24T07:11:59;5.30;;;4.30;;
67065;SDS011;53978;43.846;25.952;2023-06-24T07:14:25;4.63;;;4.22;;
67065;SDS011;53978;43.846;25.952;2023-06-24T07:16:50;4.60;;;3.85;;
67065;SDS011;53978;43.846;25.952;2023-06-24T07:19:16;6.45;;;4.50;;
67065;SDS011;53978;43.846;25.952;2023-06-24T07:21:41;6.35;;;4.20;;
67065;SDS011;53978;43.846;25.952;2023-06-24T07:24:07;7.07;;;4.20;;
67065;SDS011;53978;43.846;25.952;2023-06-24T07:26:32;8.50;;;4.25;;
67065;SDS011;53978;43.846;25.952;2023-06-24T07:28:58;14.25;;;4.50;;
67065;SDS011;53978;43.846;25.952;2023-06-24T07:31:23;6.65;;;3.85;;
67065;SDS011;53978;43.846;25.952;2023-06-24T07:33:49;9.25;;;4.50;;
67065;SDS011;53978;43.846;25.952;2023-06-24T07:36:14;9.02;;;4.45;;
67065;SDS011;53978;43.846;25.952;2023-06-24T07:38:40;7.15;;;4.35;;
67065;SDS011;53978;43.846;25.952;2023-06-24T07:41:05;9.18;;;4.53;;
67065;SDS011;53978;43.846;25.952;2023-06-24T07:43:30;6.55;;;4.50;;
67065;SDS011;53978;43.846;25.952;2023-06-24T07:45:56;5.85;;;4.85;;
67065;SDS011;53978;43.846;25.952;2023-06-24T07:48:21;9.68;;;4.68;;
67065;SDS011;53978;43.846;25.952;2023-06-24T07:50:47;14.80;;;5.40;;
67065;SDS011;53978;43.846;25.952;2023-06-24T07:53:12;6.40;;;5.00;;
67065;SDS011;53978;43.846;25.952;2023-06-24T07:55:37;5.53;;;4.57;;
67065;SDS011;53978;43.846;25.952;2023-06-24T07:58:03;5.40;;;4.50;;
67065;SDS011;53978;43.846;25.952;2023-06-24T08:00:30;7.00;;;4.47;;
67065;SDS011;53978;43.846;25.952;2023-06-24T08:02:58;5.60;;;4.45;;
67065;SDS011;53978;43.846;25.952;2023-06-24T08:05:23;5.22;;;3.90;;
67065;SDS011;53978;43.846;25.952;2023-06-24T08:07:50;4.60;;;4.03;;
67065;SDS011;53978;43.846;25.952;2023-06-24T08:10:18;4.47;;;3.88;;
67065;SDS011;53978;43.846;25.952;2023-06-24T08:12:44;10.50;;;4.20;;
67065;SDS011;53978;43.846;25.952;2023-06-24T08:15:09;10.05;;;4.15;;
67065;SDS011;53978;43.846;25.952;2023-06-24T08:17:35;6.85;;;4.53;;
67065;SDS011;53978;43.846;25.952;2023-06-24T08:20:01;11.05;;;4.20;;
67065;SDS011;53978;43.846;25.952;2023-06-24T08:22:27;15.27;;;4.80;;
67065;SDS011;53978;43.846;25.952;2023-06-24T08:24:53;6.88;;;4.47;;
67065;SDS011;53978;43.846;25.952;2023-06-24T08:27:18;4.55;;;4.00;;
67065;SDS011;53978;43.846;25.952;2023-06-24T08:29:43;4.65;;;4.20;;
67065;SDS011;53978;43.846;25.952;2023-06-24T08:32:09;4.93;;;4.30;;
67065;SDS011;53978;43.846;25.952;2023-06-24T08:34:37;4.47;;;4.07;;
67065;SDS011;53978;43.846;25.952;2023-06-24T08:37:03;7.55;;;4.07;;
67065;SDS011;53978;43.846;25.952;2023-06-24T08:39:28;6.30;;;4.45;;
67065;SDS011;53978;43.846;25.952;2023-06-24T08:41:57;7.38;;;4.60;;
67065;SDS011;53978;43.846;25.952;2023-06-24T08:44:22;6.50;;;4.40;;
67065;SDS011;53978;43.846;25.952;2023-06-24T08:46:48;5.50;;;4.10;;
67065;SDS011;53978;43.846;25.952;2023-06-24T08:49:26;5.75;;;4.18;;
67065;SDS011;53978;43.846;25.952;2023-06-24T08:54:26;4.53;;;4.13;;
67065;SDS011;53978;43.846;25.952;2023-06-24T08:56:52;8.65;;;3.80;;
67065;SDS011;53978;43.846;25.952;2023-06-24T08:59:18;4.18;;;3.72;;
67065;SDS011;53978;43.846;25.952;2023-06-24T09:01:47;6.93;;;3.70;;
67065;SDS011;53978;43.846;25.952;2023-06-24T09:04:13;3.40;;;3.10;;
67065;SDS011;53978;43.846;25.952;2023-06-24T09:06:41;8.27;;;3.53;;
67065;SDS011;53978;43.846;25.952;2023-06-24T09:09:16;4.50;;;2.70;;
67065;SDS011;53978;43.846;25.952;2023-06-24T09:11:50;4.78;;;2.90;;
67065;SDS011;53978;43.846;25.952;2023-06-24T09:14:19;4.88;;;2.40;;
67065;SDS011;53978;43.846;25.952;2023-06-24T09:16:51;4.95;;;2.30;;
67065;SDS011;53978;43.846;25.952;2023-06-24T09:19:23;8.60;;;2.72;;
67065;SDS011;53978;43.846;25.952;2023-06-24T09:21:50;7.63;;;2.75;;
67065;SDS011;53978;43.846;25.952;2023-06-24T09:24:17;3.95;;;2.50;;
67065;SDS011;53978;43.846;25.952;2023-06-24T09:26:44;3.03;;;2.70;;
67065;SDS011;53978;43.846;25.952;2023-06-24T09:29:12;2.90;;;2.60;;
67065;SDS011;53978;43.846;25.952;2023-06-24T09:31:49;3.55;;;2.60;;
67065;SDS011;53978;43.846;25.952;2023-06-24T09:34:15;3.20;;;2.70;;
67065;SDS011;53978;43.846;25.952;2023-06-24T09:36:44;7.22;;;2.40;;
67065;SDS011;53978;43.846;25.952;2023-06-24T09:39:10;4.60;;;2.50;;
67065;SDS011;53978;43.846;25.952;2023-06-24T09:41:35;4.53;;;2.40;;
67065;SDS011;53978;43.846;25.952;2023-06-24T09:44:01;5.38;;;2.60;;
67065;SDS011;53978;43.846;25.952;2023-06-24T09:46:28;3.80;;;2.70;;
67065;SDS011;53978;43.846;25.952;2023-06-24T09:48:55;6.50;;;2.70;;
67065;SDS011;53978;43.846;25.952;2023-06-24T09:51:20;4.50;;;2.58;;
67065;SDS011;53978;43.846;25.952;2023-06-24T09:53:47;3.25;;;2.63;;
67065;SDS011;53978;43.846;25.952;2023-06-24T09:56:15;6.90;;;2.60;;
67065;SDS011;53978;43.846;25.952;2023-06-24T09:58:41;2.97;;;2.67;;
67065;SDS011;53978;43.846;25.952;2023-06-24T10:01:08;3.45;;;2.80;;
67065;SDS011;53978;43.846;25.952;2023-06-24T10:03:37;5.80;;;2.47;;
67065;SDS011;53978;43.846;25.952;2023-06-24T10:06:03;3.08;;;2.60;;
67065;SDS011;53978;43.846;25.952;2023-06-24T10:08:29;2.88;;;2.30;;
67065;SDS011;53978;43.846;25.952;2023-06-24T10:10:55;5.22;;;3.05;;
67065;SDS011;53978;43.846;25.952;2023-06-24T10:13:21;3.15;;;2.67;;
67065;SDS011;53978;43.846;25.952;2023-06-24T10:15:46;6.68;;;2.97;;
67065;SDS011;53978;43.846;25.952;2023-06-24T10:23:21;3.35;;;3.05;;
67065;SDS011;53978;43.846;25.952;2023-06-24T10:25:47;3.20;;;2.90;;
67065;SDS011;53978;43.846;25.952;2023-06-24T10:28:13;3.58;;;2.97;;
67065;SDS011;53978;43.846;25.952;2023-06-24T10:30:38;4.78;;;3.55;;
67065;SDS011;53978;43.846;25.952;2023-06-24T10:33:04;5.30;;;3.03;;
67065;SDS011;53978;43.846;25.952;2023-06-24T10:35:36;4.05;;;3.00;;
67065;SDS011;53978;43.846;25.952;2023-06-24T10:38:07;3.63;;;3.22;;
67065;SDS011;53978;43.846;25.952;2023-06-24T10:40:53;5.25;;;2.78;;
67065;SDS011;53978;43.846;25.952;2023-06-24T10:43:25;6.18;;;3.13;;
67065;SDS011;53978;43.846;25.952;2023-06-24T10:45:52;12.02;;;3.58;;
67065;SDS011;53978;43.846;25.952;2023-06-24T10:48:19;3.80;;;3.50;;
67065;SDS011;53978;43.846;25.952;2023-06-24T10:50:45;3.65;;;3.15;;
67065;SDS011;53978;43.846;25.952;2023-06-24T10:53:12;4.32;;;3.00;;
67065;SDS011;53978;43.846;25.952;2023-06-24T10:55:37;3.35;;;3.05;;
67065;SDS011;53978;43.846;25.952;2023-06-24T10:58:09;6.90;;;3.60;;
67065;SDS011;53978;43.846;25.952;2023-06-24T11:00:37;7.45;;;3.17;;
67065;SDS011;53978;43.846;25.952;2023-06-24T11:03:08;4.60;;;3.70;;
67065;SDS011;53978;43.846;25.952;2023-06-24T11:05:41;5.45;;;3.33;;
67065;SDS011;53978;43.846;25.952;2023-06-24T11:08:07;3.75;;;3.28;;
67065;SDS011;53978;43.846;25.952;2023-06-24T11:10:48;5.18;;;3.00;;
67065;SDS011;53978;43.846;25.952;2023-06-24T11:13:19;5.13;;;3.15;;
67065;SDS011;53978;43.846;25.952;2023-06-24T11:15:53;4.30;;;3.20;;
67065;SDS011;53978;43.846;25.952;2023-06-24T11:18:25;4.30;;;3.22;;
67065;SDS011;53978;43.846;25.952;2023-06-24T11:20:53;3.13;;;2.83;;
67065;SDS011;53978;43.846;25.952;2023-06-24T11:23:20;3.50;;;3.20;;
67065;SDS011;53978;43.846;25.952;2023-06-24T11:25:46;3.60;;;3.30;;
67065;SDS011;53978;43.846;25.952;2023-06-24T11:28:12;3.40;;;3.10;;
67065;SDS011;53978;43.846;25.952;2023-06-24T11:30:42;3.35;;;2.90;;
67065;SDS011;53978;43.846;25.952;2023-06-24T11:33:07;3.78;;;2.92;;
67065;SDS011;53978;43.846;25.952;2023-06-24T11:35:32;3.55;;;3.10;;
67065;SDS011;53978;43.846;25.952;2023-06-24T11:38:03;5.68;;;2.95;;
67065;SDS011;53978;43.846;25.952;2023-06-24T11:40:30;7.25;;;3.15;;
67065;SDS011;53978;43.846;25.952;2023-06-24T11:42:59;3.53;;;3.03;;
67065;SDS011;53978;43.846;25.952;2023-06-24T11:45:25;9.77;;;3.38;;
67065;SDS011;53978;43.846;25.952;2023-06-24T11:47:50;11.20;;;3.13;;
67065;SDS011;53978;43.846;25.952;2023-06-24T11:50:20;3.05;;;2.85;;
67065;SDS011;53978;43.846;25.952;2023-06-24T11:52:51;3.33;;;3.00;;
67065;SDS011;53978;43.846;25.952;2023-06-24T11:55:24;5.10;;;3.33;;
67065;SDS011;53978;43.846;25.952;2023-06-24T11:57:59;3.45;;;3.08;;
67065;SDS011;53978;43.846;25.952;2023-06-24T12:00:36;3.63;;;3.10;;
67065;SDS011;53978;43.846;25.952;2023-06-24T12:03:04;3.20;;;2.90;;
67065;SDS011;53978;43.846;25.952;2023-06-24T12:05:31;5.68;;;3.28;;
67065;SDS011;53978;43.846;25.952;2023-06-24T12:07:59;6.07;;;3.20;;
67065;SDS011;53978;43.846;25.952;2023-06-24T12:10:24;3.10;;;2.80;;
67065;SDS011;53978;43.846;25.952;2023-06-24T12:12:50;4.32;;;3.28;;
67065;SDS011;53978;43.846;25.952;2023-06-24T12:15:16;7.20;;;2.78;;
67065;SDS011;53978;43.846;25.952;2023-06-24T12:17:41;4.43;;;3.30;;
67065;SDS011;53978;43.846;25.952;2023-06-24T12:20:07;3.22;;;3.00;;
67065;SDS011;53978;43.846;25.952;2023-06-24T12:22:33;3.60;;;3.13;;
67065;SDS011;53978;43.846;25.952;2023-06-24T12:24:59;4.18;;;3.28;;
67065;SDS011;53978;43.846;25.952;2023-06-24T12:27:24;3.60;;;3.28;;
67065;SDS011;53978;43.846;25.952;2023-06-24T12:29:52;6.00;;;4.03;;
67065;SDS011;53978;43.846;25.952;2023-06-24T12:32:17;3.90;;;2.92;;
67065;SDS011;53978;43.846;25.952;2023-06-24T12:34:43;3.60;;;3.30;;
67065;SDS011;53978;43.846;25.952;2023-06-24T12:37:08;4.50;;;3.00;;
67065;SDS011;53978;43.846;25.952;2023-06-24T12:39:33;3.83;;;2.90;;
67065;SDS011;53978;43.846;25.952;2023-06-24T12:41:59;3.35;;;3.05;;
67065;SDS011;53978;43.846;25.952;2023-06-24T12:44:24;3.13;;;2.92;;
67065;SDS011;53978;43.846;25.952;2023-06-24T12:46:52;6.78;;;3.55;;
67065;SDS011;53978;43.846;25.952;2023-06-24T12:49:17;6.15;;;3.20;;
67065;SDS011;53978;43.846;25.952;2023-06-24T12:51:43;4.53;;;3.63;;
67065;SDS011;53978;43.846;25.952;2023-06-24T12:54:08;3.72;;;3.08;;
67065;SDS011;53978;43.846;25.952;2023-06-24T12:56:34;5.70;;;4.47;;
67065;SDS011;53978;43.846;25.952;2023-06-24T12:58:59;4.22;;;3.55;;
67065;SDS011;53978;43.846;25.952;2023-06-24T13:01:24;4.32;;;3.40;;
67065;SDS011;53978;43.846;25.952;2023-06-24T13:03:52;3.30;;;2.97;;
67065;SDS011;53978;43.846;25.952;2023-06-24T13:06:18;3.97;;;3.42;;
67065;SDS011;53978;43.846;25.952;2023-06-24T13:08:43;5.85;;;3.30;;
67065;SDS011;53978;43.846;25.952;2023-06-24T13:11:09;4.35;;;3.20;;
67065;SDS011;53978;43.846;25.952;2023-06-24T13:13:34;6.68;;;3.40;;
67065;SDS011;53978;43.846;25.952;2023-06-24T13:15:59;3.35;;;3.00;;
67065;SDS011;53978;43.846;25.952;2023-06-24T13:18:25;4.13;;;2.92;;
67065;SDS011;53978;43.846;25.952;2023-06-24T13:20:50;5.35;;;3.20;;
67065;SDS011;53978;43.846;25.952;2023-06-24T13:23:16;6.78;;;3.30;;
67065;SDS011;53978;43.846;25.952;2023-06-24T13:25:41;3.40;;;3.10;;
67065;SDS011;53978;43.846;25.952;2023-06-24T13:28:07;4.90;;;2.97;;
67065;SDS011;53978;43.846;25.952;2023-06-24T13:30:32;5.05;;;3.05;;
67065;SDS011;53978;43.846;25.952;2023-06-24T13:32:57;4.78;;;3.30;;
67065;SDS011;53978;43.846;25.952;2023-06-24T13:35:23;6.10;;;3.10;;
67065;SDS011;53978;43.846;25.952;2023-06-24T13:37:48;3.33;;;3.03;;
67065;SDS011;53978;43.846;25.952;2023-06-24T13:40:16;3.92;;;2.90;;
67065;SDS011;53978;43.846;25.952;2023-06-24T13:42:41;3.60;;;3.05;;
67065;SDS011;53978;43.846;25.952;2023-06-24T13:45:07;4.50;;;3.30;;
67065;SDS011;53978;43.846;25.952;2023-06-24T13:47:33;5.05;;;3.15;;
67065;SDS011;53978;43.846;25.952;2023-06-24T13:49:58;4.18;;;3.10;;
67065;SDS011;53978;43.846;25.952;2023-06-24T13:52:25;5.75;;;2.88;;
67065;SDS011;53978;43.846;25.952;2023-06-24T13:54:51;5.63;;;3.17;;
67065;SDS011;53978;43.846;25.952;2023-06-24T13:57:17;8.45;;;3.20;;
67065;SDS011;53978;43.846;25.952;2023-06-24T13:59:42;3.58;;;3.28;;
67065;SDS011;53978;43.846;25.952;2023-06-24T14:02:07;3.53;;;3.22;;
67065;SDS011;53978;43.846;25.952;2023-06-24T14:04:34;7.32;;;3.25;;
67065;SDS011;53978;43.846;25.952;2023-06-24T14:07:00;4.55;;;3.25;;
67065;SDS011;53978;43.846;25.952;2023-06-24T14:09:27;8.02;;;3.25;;
67065;SDS011;53978;43.846;25.952;2023-06-24T14:11:55;9.32;;;3.30;;
67065;SDS011;53978;43.846;25.952;2023-06-24T14:14:20;7.63;;;3.22;;
67065;SDS011;53978;43.846;25.952;2023-06-24T14:16:46;6.82;;;3.45;;
67065;SDS011;53978;43.846;25.952;2023-06-24T14:19:12;3.17;;;2.85;;
67065;SDS011;53978;43.846;25.952;2023-06-24T14:21:39;4.50;;;2.85;;
67065;SDS011;53978;43.846;25.952;2023-06-24T14:24:05;4.22;;;2.90;;
67065;SDS011;53978;43.846;25.952;2023-06-24T14:26:32;2.90;;;2.67;;
67065;SDS011;53978;43.846;25.952;2023-06-24T14:28:58;4.03;;;3.20;;
67065;SDS011;53978;43.846;25.952;2023-06-24T14:31:23;7.50;;;3.15;;
67065;SDS011;53978;43.846;25.952;2023-06-24T14:33:49;3.33;;;2.72;;
67065;SDS011;53978;43.846;25.952;2023-06-24T14:36:14;3.75;;;2.40;;
67065;SDS011;53978;43.846;25.952;2023-06-24T14:38:39;5.32;;;2.90;;
67065;SDS011;53978;43.846;25.952;2023-06-24T14:41:09;3.03;;;2.60;;
67065;SDS011;53978;43.846;25.952;2023-06-24T14:43:34;6.85;;;3.03;;
67065;SDS011;53978;43.846;25.952;2023-06-24T14:45:59;3.53;;;2.65;;
67065;SDS011;53978;43.846;25.952;2023-06-24T14:48:25;2.88;;;2.67;;
67065;SDS011;53978;43.846;25.952;2023-06-24T14:50:50;4.68;;;2.50;;
67065;SDS011;53978;43.846;25.952;2023-06-24T14:53:16;3.10;;;2.67;;
67065;SDS011;53978;43.846;25.952;2023-06-24T14:55:41;3.45;;;2.67;;
67065;SDS011;53978;43.846;25.952;2023-06-24T14:58:06;10.57;;;4.82;;
67065;SDS011;53978;43.846;25.952;2023-06-24T15:00:32;5.22;;;2.85;;
67065;SDS011;53978;43.846;25.952;2023-06-24T15:02:57;4.82;;;3.55;;
67065;SDS011;53978;43.846;25.952;2023-06-24T15:05:23;7.68;;;3.22;;
67065;SDS011;53978;43.846;25.952;2023-06-24T15:07:48;3.13;;;2.83;;